createdAt,value
2023-01-20T00:01:50.240Z,101479.88
2023-01-20T00:04:54.379Z,101496.25
2023-01-20T00:07:59.048Z,101476.81
2023-01-20T00:11:11.949Z,101487.72
2023-01-20T00:14:16.594Z,101466.19
2023-01-20T00:17:21.446Z,101500.84
2023-01-20T00:20:25.684Z,101495.94
2023-01-20T00:23:29.443Z,101486.97
2023-01-20T00:26:33.805Z,101500.88
2023-01-20T00:29:37.636Z,101483.84
2023-01-20T00:32:46.328Z,101497.75
2023-01-20T00:35:50.352Z,101471.16
2023-01-20T00:38:55.105Z,101495.78
2023-01-20T00:41:58.834Z,101458.47
2023-01-20T00:45:03.404Z,101417.22
2023-01-20T00:48:07.555Z,101496.13
2023-01-20T00:51:11.980Z,101485.06
2023-01-20T00:54:15.706Z,101481.72
2023-01-20T00:57:20.030Z,101465.19
2023-01-20T01:00:24.082Z,101484.16
2023-01-20T01:03:28.927Z,101505.34
2023-01-20T01:06:32.962Z,101442.84
2023-01-20T01:09:37.631Z,101504.75
2023-01-20T01:12:41.383Z,101460.34
2023-01-20T01:15:51.870Z,101520.09
2023-01-20T01:18:56.538Z,101519.88
2023-01-20T01:22:00.705Z,101532.00
2023-01-20T01:25:04.501Z,101537.66
2023-01-20T01:28:09.260Z,101529.03
2023-01-20T01:31:13.039Z,101529.00
2023-01-20T01:34:17.479Z,101525.25
2023-01-20T01:37:21.216Z,101527.25
2023-01-20T01:40:25.441Z,101541.59
2023-01-20T01:43:33.673Z,101551.00
2023-01-20T01:46:38.464Z,101534.78
2023-01-20T01:49:42.184Z,101545.81
2023-01-20T01:52:49.620Z,101543.06
2023-01-20T01:56:00.151Z,101549.72
2023-01-20T01:59:05.190Z,101540.63
2023-01-20T02:02:12.263Z,101536.09
2023-01-20T02:05:21.994Z,101538.41
2023-01-20T02:08:44.394Z,101531.66
2023-01-20T02:12:03.832Z,101515.59
2023-01-20T02:15:08.358Z,101531.84
2023-01-20T02:18:21.688Z,101515.81
2023-01-20T02:22:06.549Z,101536.56
2023-01-20T02:25:30.854Z,101539.44
2023-01-20T02:29:05.876Z,101542.34
2023-01-20T02:32:29.571Z,101519.69
2023-01-20T02:35:54.586Z,101515.31
2023-01-20T02:39:07.053Z,101525.31
2023-01-20T02:42:10.693Z,101533.75
2023-01-20T02:45:39.031Z,101518.38
2023-01-20T02:48:52.739Z,101428.22
2023-01-20T02:52:06.338Z,101521.28
2023-01-20T02:55:14.843Z,101510.31
2023-01-20T02:58:57.765Z,101503.31
2023-01-20T03:02:07.382Z,101497.34
2023-01-20T03:05:21.999Z,101505.50
2023-01-20T03:08:30.971Z,101477.78
2023-01-20T03:11:40.157Z,101490.38
2023-01-20T03:14:44.109Z,101487.31
2023-01-20T03:17:48.697Z,101465.81
2023-01-20T03:20:52.921Z,101494.84
2023-01-20T03:24:03.327Z,101482.47
2023-01-20T03:27:07.803Z,101489.63
2023-01-20T03:30:17.528Z,101490.75
2023-01-20T03:33:21.349Z,101476.19
2023-01-20T03:36:29.478Z,101482.72
2023-01-20T03:39:34.700Z,101497.06
2023-01-20T03:43:02.992Z,101527.63
2023-01-20T03:46:25.181Z,101510.09
2023-01-20T03:49:52.813Z,101511.59
2023-01-20T03:53:08.030Z,101505.91
2023-01-20T03:56:37.895Z,101495.38
2023-01-20T03:59:45.099Z,101497.34
2023-01-20T04:02:50.902Z,101496.34
2023-01-20T04:05:56.673Z,101508.00
2023-01-20T04:09:11.224Z,101483.31
2023-01-20T04:12:15.404Z,101491.47
2023-01-20T04:15:21.348Z,101519.78
2023-01-20T04:18:25.593Z,101492.84
2023-01-20T04:21:42.149Z,101507.97
2023-01-20T04:24:51.645Z,101505.31
2023-01-20T04:27:55.960Z,101513.34
2023-01-20T04:30:59.849Z,101504.19
2023-01-20T04:34:05.279Z,101504.31
2023-01-20T04:37:09.025Z,101467.63
2023-01-20T04:40:13.795Z,101515.50
2023-01-20T04:43:19.141Z,101499.19
2023-01-20T04:46:23.490Z,101523.78
2023-01-20T04:49:27.312Z,101540.06
2023-01-20T04:52:31.762Z,101516.28
2023-01-20T04:55:35.550Z,101541.09
2023-01-20T04:58:40.365Z,101533.16
2023-01-20T05:01:44.202Z,101526.03
2023-01-20T05:04:48.612Z,101550.53
2023-01-20T05:07:56.148Z,101547.88
2023-01-20T05:11:01.296Z,101547.13
2023-01-20T05:14:05.300Z,101547.25
2023-01-20T05:17:09.773Z,101520.03
2023-01-20T05:20:15.352Z,101552.72
2023-01-20T05:23:20.168Z,101539.50
2023-01-20T05:26:24.967Z,101575.50
2023-01-20T05:29:30.117Z,101555.75
2023-01-20T05:32:34.019Z,101586.72
2023-01-20T05:35:41.664Z,101587.50
2023-01-20T05:38:48.518Z,101586.00
2023-01-20T05:41:52.725Z,101571.91
2023-01-20T05:44:56.475Z,101578.41
2023-01-20T05:48:02.114Z,101590.28
2023-01-20T05:51:05.628Z,101588.38
2023-01-20T05:54:11.454Z,101587.97
2023-01-20T05:57:18.921Z,101560.94
2023-01-20T06:00:23.840Z,101609.81
2023-01-20T06:03:27.583Z,101596.88
2023-01-20T06:06:31.893Z,101613.50
2023-01-20T06:09:35.743Z,101548.38
2023-01-20T06:12:40.544Z,101616.50
2023-01-20T06:15:44.486Z,101597.78
2023-01-20T06:18:48.894Z,101593.81
2023-01-20T06:21:54.204Z,101624.41
2023-01-20T06:24:58.898Z,101638.22
2023-01-20T06:28:02.740Z,101627.78
2023-01-20T06:31:10.412Z,101641.34
2023-01-20T06:34:14.919Z,101631.25
2023-01-20T06:37:19.421Z,101632.41
2023-01-20T06:40:23.392Z,101639.94
2023-01-20T06:43:31.713Z,101622.00
2023-01-20T06:46:35.827Z,101652.28
2023-01-20T06:49:40.229Z,101658.47
2023-01-20T06:52:44.079Z,101659.69
2023-01-20T06:55:57.614Z,101658.13
2023-01-20T06:59:01.446Z,101635.25
2023-01-20T07:02:06.028Z,101663.09
2023-01-20T07:05:11.371Z,101672.13
2023-01-20T07:08:15.830Z,101673.53
2023-01-20T07:11:19.995Z,101668.78
2023-01-20T07:14:24.330Z,101663.22
2023-01-20T07:17:28.347Z,101687.94
2023-01-20T07:20:32.560Z,101677.28
2023-01-20T07:23:36.292Z,101701.25
2023-01-20T07:26:40.911Z,101695.38
2023-01-20T07:29:45.371Z,101711.78
2023-01-20T07:32:52.444Z,101718.63
2023-01-20T07:35:56.391Z,101717.16
2023-01-20T07:39:00.821Z,101709.13
2023-01-20T07:42:04.720Z,101687.59
2023-01-20T07:45:09.434Z,101707.00
2023-01-20T07:48:13.226Z,101729.91
2023-01-20T07:51:18.239Z,101730.69
2023-01-20T07:54:22.030Z,101742.00
2023-01-20T07:57:26.523Z,101722.72
2023-01-20T08:00:30.194Z,101739.28
2023-01-20T08:03:34.492Z,101738.44
2023-01-20T08:06:38.395Z,101743.66
2023-01-20T08:09:44.838Z,101745.84
2023-01-20T08:12:48.582Z,101759.78
2023-01-20T08:15:53.804Z,101746.47
2023-01-20T08:18:57.556Z,101756.00
2023-01-20T08:22:02.047Z,101742.31
2023-01-20T08:25:06.086Z,101743.38
2023-01-20T08:28:10.878Z,101740.66
2023-01-20T08:31:18.065Z,101726.94
2023-01-20T08:34:24.058Z,101724.56
2023-01-20T08:37:27.940Z,101746.97
2023-01-20T08:40:34.074Z,101752.41
2023-01-20T08:43:38.356Z,101725.88
2023-01-20T08:46:43.251Z,101776.19
2023-01-20T08:49:47.043Z,101777.63
2023-01-20T08:52:51.555Z,101771.06
2023-01-20T08:55:59.898Z,101770.69
2023-01-20T08:59:05.029Z,101791.72
2023-01-20T09:02:12.818Z,101760.59
2023-01-20T09:05:17.271Z,101784.25
2023-01-20T09:08:21.737Z,101783.66
2023-01-20T09:11:29.118Z,101783.13
2023-01-20T09:14:33.167Z,101738.16
2023-01-20T09:17:37.854Z,101792.25
2023-01-20T09:20:41.780Z,101808.59
2023-01-20T09:23:49.164Z,101811.75
2023-01-20T09:26:53.606Z,101817.94
2023-01-20T09:29:58.182Z,101817.53
2023-01-20T09:33:03.063Z,101723.81
2023-01-20T09:36:10.582Z,101786.06
2023-01-20T09:39:33.440Z,101820.53
2023-01-20T09:43:29.221Z,101854.25
2023-01-20T09:47:10.773Z,101860.97
2023-01-20T09:50:42.304Z,101864.19
2023-01-20T09:54:00.043Z,101879.75
2023-01-20T09:57:07.993Z,101849.22
2023-01-20T10:00:22.526Z,101839.59
2023-01-20T10:03:49.647Z,101877.94
2023-01-20T10:07:08.723Z,101881.72
2023-01-20T10:10:32.705Z,101908.69
2023-01-20T10:13:47.964Z,101897.88
2023-01-20T10:17:08.518Z,101920.19
2023-01-20T10:20:21.031Z,101917.78
2023-01-20T10:23:34.887Z,101928.75
2023-01-20T10:26:58.421Z,101936.47
2023-01-20T10:30:14.674Z,101928.88
2023-01-20T10:33:42.480Z,101947.03
2023-01-20T10:36:52.074Z,101956.66
2023-01-20T10:40:04.700Z,101884.59
2023-01-20T10:43:16.692Z,101953.28
2023-01-20T10:46:34.139Z,101954.81
2023-01-20T10:49:47.078Z,101977.41
2023-01-20T10:52:51.883Z,101988.06
2023-01-20T10:56:30.747Z,101998.06
2023-01-20T10:59:44.188Z,101965.94
2023-01-20T11:02:50.232Z,102022.13
2023-01-20T11:05:54.961Z,101971.06
2023-01-20T11:09:12.960Z,102003.69
2023-01-20T11:12:24.898Z,102002.50
2023-01-20T11:15:39.373Z,102012.19
2023-01-20T11:18:44.786Z,101962.09
2023-01-20T11:21:50.776Z,102001.09
2023-01-20T11:24:57.431Z,102015.69
2023-01-20T11:28:03.764Z,102036.69
2023-01-20T11:31:07.986Z,102044.19
2023-01-20T11:34:28.957Z,102028.66
2023-01-20T11:37:39.588Z,102030.53
2023-01-20T11:40:55.935Z,102030.88
2023-01-20T11:44:01.726Z,102033.81
2023-01-20T11:47:33.146Z,102037.19
2023-01-20T11:50:55.029Z,102055.69
2023-01-20T11:54:10.105Z,102019.69
2023-01-20T11:57:18.578Z,102012.50
2023-01-20T12:00:32.961Z,102047.50
2023-01-20T12:04:21.021Z,102051.31
2023-01-20T12:07:40.564Z,102048.13
2023-01-20T12:10:47.202Z,102050.28
2023-01-20T12:14:24.183Z,102045.28
2023-01-20T12:17:43.409Z,102053.66
2023-01-20T12:21:00.350Z,102071.44
2023-01-20T12:24:52.450Z,102084.16
2023-01-20T12:28:10.552Z,102063.81
2023-01-20T12:31:20.773Z,102084.22
2023-01-20T12:34:30.659Z,102112.34
2023-01-20T12:37:58.468Z,102111.06
2023-01-20T12:41:08.991Z,102108.28
2023-01-20T12:44:36.159Z,102127.44
2023-01-20T12:48:18.063Z,102131.22
2023-01-20T12:51:30.230Z,102083.31
2023-01-20T12:54:52.537Z,102112.66
2023-01-20T12:58:13.640Z,102096.41
2023-01-20T13:01:29.546Z,102107.59
2023-01-20T13:04:55.436Z,102089.50
2023-01-20T13:08:14.172Z,102092.44
2023-01-20T13:12:00.312Z,102088.56
2023-01-20T13:15:20.155Z,102104.09
2023-01-20T13:18:58.265Z,102111.50
2023-01-20T13:22:36.703Z,102108.06
2023-01-20T13:25:42.208Z,102105.72
2023-01-20T13:28:57.480Z,102099.47
2023-01-20T13:32:01.787Z,102102.91
2023-01-20T13:35:27.078Z,102123.91
2023-01-20T13:38:33.917Z,102116.78
2023-01-20T13:41:54.011Z,102105.06
2023-01-20T13:45:13.729Z,102117.53
2023-01-20T13:48:26.840Z,102114.81
2023-01-20T13:51:39.819Z,102121.03
2023-01-20T13:54:48.761Z,102099.13
2023-01-20T13:57:52.832Z,102094.66
2023-01-20T14:01:09.809Z,102113.09
2023-01-20T14:04:19.737Z,102115.63
2023-01-20T14:07:29.084Z,102111.50
2023-01-20T14:10:33.432Z,102124.09
2023-01-20T14:13:37.500Z,102118.69
2023-01-20T14:16:44.299Z,102119.34
2023-01-20T14:19:54.093Z,102119.34
2023-01-20T14:23:24.858Z,102138.78
2023-01-20T14:26:31.644Z,102134.63
2023-01-20T14:29:36.206Z,102112.16
2023-01-20T14:32:40.393Z,102128.25
2023-01-20T14:35:45.495Z,102136.72
2023-01-20T14:38:58.873Z,102134.94
2023-01-20T14:42:03.284Z,102069.06
2023-01-20T14:45:24.413Z,102120.63
2023-01-20T14:48:34.823Z,102108.13
2023-01-20T14:51:39.254Z,102131.28
2023-01-20T14:54:46.490Z,102147.19
2023-01-20T14:57:51.523Z,102141.28
2023-01-20T15:01:00.999Z,102139.03
2023-01-20T15:04:06.846Z,102138.13
2023-01-20T15:07:20.501Z,102147.66
2023-01-20T15:10:24.500Z,102135.50
2023-01-20T15:13:31.836Z,102162.75
2023-01-20T15:16:45.615Z,102151.97
2023-01-20T15:19:49.897Z,102152.34
2023-01-20T15:22:54.348Z,102135.44
2023-01-20T15:26:09.237Z,102164.53
2023-01-20T15:29:33.737Z,102168.72
2023-01-20T15:32:37.686Z,102175.34
2023-01-20T15:35:42.918Z,102171.44
2023-01-20T15:38:47.214Z,102162.41
2023-01-20T15:41:58.489Z,102112.56
2023-01-20T15:45:02.261Z,102165.06
2023-01-20T15:48:17.618Z,102171.88
2023-01-20T15:51:21.631Z,102192.88
2023-01-20T15:54:25.874Z,102186.75
2023-01-20T15:57:31.627Z,102175.09
2023-01-20T16:00:35.841Z,102200.03
2023-01-20T16:03:39.610Z,102203.94
2023-01-20T16:06:44.140Z,102214.81
2023-01-20T16:09:48.335Z,102225.38
2023-01-20T16:12:53.202Z,102230.22
2023-01-20T16:15:57.979Z,102215.72
2023-01-20T16:19:02.607Z,102220.84
2023-01-20T16:22:07.736Z,102216.88
2023-01-20T16:25:12.156Z,102194.88
2023-01-20T16:28:20.508Z,102253.63
2023-01-20T16:31:26.984Z,102241.53
2023-01-20T16:34:31.093Z,102229.59
2023-01-20T16:37:35.463Z,102245.66
2023-01-20T16:40:50.383Z,102266.69
2023-01-20T16:43:56.950Z,102235.50
2023-01-20T16:47:00.990Z,102206.78
2023-01-20T16:50:05.621Z,102221.91
2023-01-20T16:53:08.989Z,102269.81
2023-01-20T16:56:24.602Z,102205.44
2023-01-20T16:59:28.412Z,102269.56
2023-01-20T17:02:32.612Z,102292.09
2023-01-20T17:05:36.555Z,102268.59
2023-01-20T17:08:40.485Z,102298.06
2023-01-20T17:11:43.949Z,102293.78
2023-01-20T17:14:48.531Z,102316.25
2023-01-20T17:17:52.851Z,102317.31
2023-01-20T17:20:57.150Z,102324.47
2023-01-20T17:24:01.938Z,102326.09
2023-01-20T17:27:06.461Z,102322.13
2023-01-20T17:30:10.285Z,102322.53
2023-01-20T17:33:15.007Z,102333.41
2023-01-20T17:36:19.170Z,102329.25
2023-01-20T17:39:23.156Z,102338.19
2023-01-20T17:42:26.557Z,102341.16
2023-01-20T17:45:33.231Z,102334.13
2023-01-20T17:48:36.635Z,102329.41
2023-01-20T17:51:40.607Z,102344.81
2023-01-20T17:54:44.055Z,102335.09
2023-01-20T17:57:48.100Z,102335.81
2023-01-20T18:00:51.525Z,102337.03
2023-01-20T18:03:56.582Z,102348.00
2023-01-20T18:07:00.415Z,102342.91
2023-01-20T18:10:04.654Z,102351.63
2023-01-20T18:13:08.049Z,102347.34
2023-01-20T18:16:13.413Z,102343.78
2023-01-20T18:19:16.936Z,102359.94
2023-01-20T18:22:20.964Z,102359.25
2023-01-20T18:25:24.464Z,102350.47
2023-01-20T18:28:28.844Z,102352.81
2023-01-20T18:31:35.542Z,102364.16
2023-01-20T18:34:40.063Z,102365.41
2023-01-20T18:37:43.832Z,102367.22
2023-01-20T18:40:47.861Z,102364.56
2023-01-20T18:43:52.045Z,102369.88
2023-01-20T18:46:56.313Z,102362.16
2023-01-20T18:49:59.712Z,102358.38
2023-01-20T18:53:03.595Z,102357.28
2023-01-20T18:56:09.313Z,102360.28
2023-01-20T18:59:13.457Z,102354.66
2023-01-20T19:02:16.939Z,102369.03
2023-01-20T19:05:20.870Z,102368.00
2023-01-20T19:08:25.522Z,102385.06
2023-01-20T19:11:32.284Z,102379.63
2023-01-20T19:14:35.700Z,102381.19
2023-01-20T19:17:39.876Z,102376.78
2023-01-20T19:20:43.206Z,102384.81
2023-01-20T19:23:50.992Z,102387.56
2023-01-20T19:26:54.757Z,102389.41
2023-01-20T19:29:58.928Z,102389.13
2023-01-20T19:33:02.706Z,102387.28
2023-01-20T19:36:08.576Z,102380.00
2023-01-20T19:39:12.452Z,102388.34
2023-01-20T19:42:16.576Z,102394.47
2023-01-20T19:45:19.967Z,102388.69
2023-01-20T19:48:24.249Z,102381.19
2023-01-20T19:51:28.012Z,102395.66
2023-01-20T19:54:34.245Z,102395.66
2023-01-20T19:57:38.095Z,102401.94
2023-01-20T20:00:42.190Z,102397.50
2023-01-20T20:03:45.920Z,102396.53
2023-01-20T20:06:50.013Z,102408.06
2023-01-20T20:09:53.708Z,102403.44
2023-01-20T20:12:58.572Z,102396.06
2023-01-20T20:16:02.592Z,102405.66
2023-01-20T20:19:07.522Z,102409.44
2023-01-20T20:22:10.894Z,102407.69
2023-01-20T20:25:14.840Z,102411.59
2023-01-20T20:28:18.485Z,102410.66
2023-01-20T20:31:23.448Z,102416.66
2023-01-20T20:34:26.890Z,102409.38
2023-01-20T20:37:31.660Z,102413.56
2023-01-20T20:40:35.909Z,102411.19
2023-01-20T20:43:39.817Z,102423.72
2023-01-20T20:46:44.253Z,102415.16
2023-01-20T20:49:48.876Z,102426.44
2023-01-20T20:52:52.367Z,102417.31
2023-01-20T20:55:59.952Z,102420.44
2023-01-20T20:59:03.955Z,102419.59
2023-01-20T21:02:08.098Z,102426.28
2023-01-20T21:05:11.529Z,102431.00
2023-01-20T21:08:15.827Z,102443.53
2023-01-20T21:11:20.901Z,102448.72
2023-01-20T21:14:26.297Z,102446.91
2023-01-20T21:17:30.082Z,102445.25
2023-01-20T21:20:34.510Z,102442.13
2023-01-20T21:23:38.027Z,102439.66
2023-01-20T21:26:42.471Z,102440.66
2023-01-20T21:29:47.178Z,102442.78
2023-01-20T21:32:51.255Z,102437.66
2023-01-20T21:35:54.632Z,102444.06
2023-01-20T21:39:00.374Z,102441.69
2023-01-20T21:42:06.673Z,102444.09
2023-01-20T21:45:10.995Z,102453.56
2023-01-20T21:48:33.094Z,102448.31
2023-01-20T21:51:55.609Z,102453.03
2023-01-20T21:54:59.102Z,102454.53
2023-01-20T21:58:03.286Z,102458.63
2023-01-20T22:01:06.859Z,102466.88
2023-01-20T22:04:11.045Z,102460.13
2023-01-20T22:07:15.964Z,102458.97
2023-01-20T22:10:19.999Z,102459.03
2023-01-20T22:13:23.397Z,102450.09
2023-01-20T22:16:27.511Z,102464.38
2023-01-20T22:19:30.965Z,102476.53
2023-01-20T22:22:34.868Z,102480.69
2023-01-20T22:25:38.807Z,102484.13
2023-01-20T22:28:43.603Z,102488.34
2023-01-20T22:39:21.347Z,102505.72
2023-01-20T22:42:25.398Z,102517.94
2023-01-20T22:45:29.231Z,102510.75
2023-01-20T22:48:34.129Z,102519.41
2023-01-20T22:51:37.787Z,102524.09
2023-01-20T22:54:41.718Z,102530.03
2023-01-20T22:57:45.681Z,102533.66
2023-01-20T23:00:49.521Z,102528.03
2023-01-20T23:03:57.319Z,102534.78
2023-01-20T23:07:01.319Z,102544.75
2023-01-20T23:10:05.557Z,102551.63
2023-01-20T23:13:09.255Z,102551.97
2023-01-20T23:16:15.502Z,102555.44
2023-01-20T23:19:19.340Z,102562.59
2023-01-20T23:22:23.366Z,102566.72
2023-01-20T23:25:27.221Z,102572.34
2023-01-20T23:28:31.118Z,102517.69
2023-01-20T23:31:35.944Z,102581.94
2023-01-20T23:38:11.322Z,102571.88
2023-01-20T23:41:17.025Z,102578.91
2023-01-20T23:44:21.278Z,102573.66
2023-01-20T23:47:24.585Z,102573.72
2023-01-20T23:50:28.214Z,102570.88
2023-01-20T23:53:33.191Z,102567.00
2023-01-20T23:56:37.155Z,102566.88
2023-01-20T23:59:40.829Z,102561.19
